createdAt,value
2023-01-24T00:03:23.851Z,101965.00
2023-01-24T00:08:27.480Z,101953.25
2023-01-24T00:13:31.238Z,101947.31
2023-01-24T00:18:36.380Z,101945.91
2023-01-24T00:23:40.929Z,101935.47
2023-01-24T00:28:44.221Z,101934.34
2023-01-24T00:33:49.388Z,101930.63
2023-01-24T00:38:52.757Z,101928.72
2023-01-24T00:43:56.071Z,101931.22
2023-01-24T00:49:01.358Z,101937.25
2023-01-24T00:54:05.329Z,101933.03
2023-01-24T00:59:08.564Z,101936.66
2023-01-24T01:04:14.036Z,101938.75
2023-01-24T01:09:17.552Z,101946.16
2023-01-24T01:14:21.007Z,101935.28
2023-01-24T01:19:25.708Z,101920.72
2023-01-24T01:24:29.111Z,101917.31
2023-01-24T01:29:32.568Z,101917.00
2023-01-24T01:34:37.902Z,101903.69
2023-01-24T01:39:41.168Z,101907.81
2023-01-24T01:44:48.203Z,101909.44
2023-01-24T01:49:59.486Z,101917.91
2023-01-24T01:55:06.709Z,101905.72
2023-01-24T02:00:15.391Z,101906.38
2023-01-24T02:05:25.183Z,101909.75
2023-01-24T02:10:50.909Z,101910.50
2023-01-24T02:16:12.624Z,101913.91
2023-01-24T02:21:18.618Z,101905.00
2023-01-24T02:26:25.472Z,101906.47
2023-01-24T02:31:29.655Z,101897.69
2023-01-24T02:36:36.175Z,101907.94
2023-01-24T02:41:46.812Z,101916.72
2023-01-24T02:46:50.091Z,101911.59
2023-01-24T02:52:10.784Z,101907.94
2023-01-24T02:57:33.106Z,101906.31
2023-01-24T03:02:36.458Z,101903.81
2023-01-24T03:07:45.492Z,101895.78
2023-01-24T03:13:07.546Z,101883.56
2023-01-24T03:18:28.876Z,101878.22
2023-01-24T03:23:49.267Z,101874.81
2023-01-24T03:29:11.753Z,101871.06
2023-01-24T03:34:33.895Z,101877.03
2023-01-24T03:39:54.540Z,101879.53
2023-01-24T03:44:59.388Z,101863.94
2023-01-24T03:50:19.849Z,101865.81
2023-01-24T03:55:24.037Z,101875.31
2023-01-24T04:00:29.301Z,101868.16
2023-01-24T04:05:34.725Z,101862.00
2023-01-24T04:10:38.189Z,101863.88
2023-01-24T04:15:42.920Z,101856.13
2023-01-24T04:20:46.321Z,101862.84
2023-01-24T04:25:57.867Z,101844.16
2023-01-24T04:31:04.522Z,101865.72
2023-01-24T04:36:10.606Z,101865.00
2023-01-24T04:41:15.289Z,101856.22
2023-01-24T04:46:20.213Z,101863.78
2023-01-24T04:51:23.612Z,101855.91
2023-01-24T04:56:27.161Z,101867.28
2023-01-24T05:01:31.964Z,101861.25
2023-01-24T05:06:36.484Z,101865.88
2023-01-24T05:11:39.917Z,101848.78
2023-01-24T05:16:44.994Z,101847.16
2023-01-24T05:21:48.310Z,101845.47
2023-01-24T05:26:51.874Z,101834.41
2023-01-24T05:31:56.754Z,101833.59
2023-01-24T05:37:00.097Z,101833.44
2023-01-24T05:42:03.480Z,101825.56
2023-01-24T05:47:08.362Z,101816.78
2023-01-24T05:52:11.705Z,101822.91
2023-01-24T05:57:15.153Z,101819.75
2023-01-24T06:02:19.854Z,101820.03
2023-01-24T06:07:23.217Z,101811.69
2023-01-24T06:12:26.653Z,101817.34
2023-01-24T06:17:31.413Z,101815.06
2023-01-24T06:22:43.349Z,101812.00
2023-01-24T06:27:47.463Z,101815.09
2023-01-24T06:33:19.425Z,101814.75
2023-01-24T06:38:25.781Z,101812.25
2023-01-24T06:43:29.642Z,101810.75
2023-01-24T06:48:34.354Z,101811.28
2023-01-24T06:53:37.654Z,101806.06
2023-01-24T06:58:40.910Z,101801.13
2023-01-24T07:03:45.672Z,101797.72
2023-01-24T07:08:49.242Z,101798.38
2023-01-24T07:13:52.694Z,101802.53
2023-01-24T07:18:58.511Z,101808.50
2023-01-24T07:24:02.221Z,101790.31
2023-01-24T07:29:05.708Z,101796.16
2023-01-24T07:34:13.358Z,101794.81
2023-01-24T07:39:18.951Z,101795.88
2023-01-24T07:44:22.276Z,101787.84
2023-01-24T07:49:27.005Z,101795.66
2023-01-24T07:54:30.355Z,101796.69
2023-01-24T07:59:38.540Z,101801.59
2023-01-24T08:04:43.963Z,101798.78
2023-01-24T08:09:48.193Z,101804.09
2023-01-24T08:14:51.658Z,101798.38
2023-01-24T08:19:57.792Z,101789.03
2023-01-24T08:25:01.685Z,101794.50
2023-01-24T08:30:08.816Z,101790.81
2023-01-24T08:35:13.835Z,101781.41
2023-01-24T08:40:17.425Z,101780.69
2023-01-24T08:45:20.880Z,101769.41
2023-01-24T08:50:25.701Z,101761.22
2023-01-24T08:55:29.164Z,101771.59
2023-01-24T09:00:33.403Z,101760.78
2023-01-24T09:05:39.736Z,101755.78
2023-01-24T09:10:43.007Z,101762.69
2023-01-24T09:15:47.258Z,101738.63
2023-01-24T09:20:52.217Z,101740.88
2023-01-24T09:25:55.931Z,101736.66
2023-01-24T09:30:59.495Z,101733.53
2023-01-24T09:36:06.076Z,101730.31
2023-01-24T09:41:19.517Z,101726.31
2023-01-24T09:46:29.814Z,101722.53
2023-01-24T09:51:39.192Z,101686.69
2023-01-24T09:56:45.567Z,101714.69
2023-01-24T10:01:49.594Z,101705.13
2023-01-24T10:07:27.956Z,101695.81
2023-01-24T10:12:58.679Z,101688.56
2023-01-24T10:18:16.714Z,101684.84
2023-01-24T10:23:27.538Z,101673.97
2023-01-24T10:28:38.644Z,101673.16
2023-01-24T10:33:48.590Z,101656.19
2023-01-24T10:38:53.256Z,101654.84
2023-01-24T10:44:00.900Z,101652.97
2023-01-24T10:49:09.866Z,101648.81
2023-01-24T10:54:23.787Z,101630.72
2023-01-24T10:59:27.323Z,101629.75
2023-01-24T11:04:32.580Z,101622.28
2023-01-24T11:09:37.443Z,101622.66
2023-01-24T11:14:41.174Z,101616.38
2023-01-24T11:19:44.767Z,101614.28
2023-01-24T11:24:50.340Z,101616.03
2023-01-24T11:30:09.377Z,101603.91
2023-01-24T11:35:14.388Z,101594.16
2023-01-24T11:40:31.435Z,101595.69
2023-01-24T11:46:28.621Z,101598.41
2023-01-24T11:51:52.526Z,101592.31
2023-01-24T11:57:04.595Z,101580.75
2023-01-24T12:02:26.625Z,101578.22
2023-01-24T12:07:40.941Z,101571.00
2023-01-24T12:12:56.225Z,101575.41
2023-01-24T12:18:28.624Z,101569.34
2023-01-24T12:23:43.709Z,101569.34
2023-01-24T12:29:02.756Z,101557.84
2023-01-24T12:34:22.487Z,101558.53
2023-01-24T12:39:33.046Z,101554.03
2023-01-24T12:44:45.318Z,101540.72
2023-01-24T12:49:57.879Z,101540.53
2023-01-24T12:55:14.064Z,101537.78
2023-01-24T13:00:21.832Z,101534.06
2023-01-24T13:05:37.292Z,101525.00
2023-01-24T13:10:50.954Z,101521.28
2023-01-24T13:16:09.191Z,101523.66
2023-01-24T13:21:21.520Z,101515.47
2023-01-24T13:27:00.652Z,101515.28
2023-01-24T13:32:12.731Z,101523.75
2023-01-24T13:37:22.562Z,101511.25
2023-01-24T13:42:35.600Z,101511.88
2023-01-24T13:47:40.713Z,101517.75
2023-01-24T13:52:49.252Z,101509.66
2023-01-24T13:58:23.841Z,101505.06
2023-01-24T14:03:35.585Z,101503.25
2023-01-24T14:08:46.884Z,101488.28
2023-01-24T14:14:03.787Z,101485.41
2023-01-24T14:19:18.440Z,101487.91
2023-01-24T14:24:26.965Z,101474.75
2023-01-24T14:29:39.454Z,101469.28
2023-01-24T14:34:49.509Z,101475.31
2023-01-24T14:39:53.095Z,101470.91
2023-01-24T14:45:01.459Z,101456.91
2023-01-24T14:50:23.993Z,101456.78
2023-01-24T14:55:35.999Z,101449.69
2023-01-24T15:00:39.489Z,101451.34
2023-01-24T15:06:02.104Z,101448.59
2023-01-24T15:11:08.630Z,101445.97
2023-01-24T15:16:19.704Z,101446.72
2023-01-24T15:21:34.675Z,101444.88
2023-01-24T15:26:43.952Z,101413.81
2023-01-24T15:31:52.320Z,101437.78
2023-01-24T15:37:02.211Z,101430.88
2023-01-24T15:42:25.857Z,101436.91
2023-01-24T15:47:55.376Z,101434.22
2023-01-24T15:53:28.921Z,101428.03
2023-01-24T15:58:33.439Z,101412.00
2023-01-24T16:03:37.338Z,101420.94
2023-01-24T16:08:42.011Z,101415.66
2023-01-24T16:13:49.608Z,101424.31
2023-01-24T16:18:53.133Z,101420.88
2023-01-24T16:23:58.211Z,101419.09
2023-01-24T16:29:01.694Z,101414.72
2023-01-24T16:34:05.155Z,101422.56
2023-01-24T16:39:15.788Z,101421.66
2023-01-24T16:44:19.534Z,101422.56
2023-01-24T16:49:23.292Z,101414.72
2023-01-24T16:54:28.437Z,101408.56
2023-01-24T16:59:32.104Z,101408.56
2023-01-24T17:04:36.072Z,101410.34
2023-01-24T17:09:41.180Z,101412.00
2023-01-24T17:14:45.067Z,101401.53
2023-01-24T17:19:48.676Z,101401.47
2023-01-24T17:24:53.573Z,101398.81
2023-01-24T17:29:57.499Z,101390.97
2023-01-24T17:35:01.135Z,101392.59
2023-01-24T17:40:07.750Z,101401.34
2023-01-24T17:45:14.293Z,101400.47
2023-01-24T17:50:18.170Z,101396.13
2023-01-24T17:55:23.109Z,101387.38
2023-01-24T18:00:27.008Z,101396.06
2023-01-24T18:05:30.678Z,101394.28
2023-01-24T18:10:39.106Z,101387.16
2023-01-24T18:15:42.967Z,101394.16
2023-01-24T18:20:46.427Z,101381.03
2023-01-24T18:25:51.527Z,101385.38
2023-01-24T18:30:55.110Z,101385.28
2023-01-24T18:35:58.742Z,101385.16
2023-01-24T18:41:03.876Z,101376.34
2023-01-24T18:46:08.769Z,101372.00
2023-01-24T18:51:14.411Z,101371.09
2023-01-24T18:56:19.343Z,101369.22
2023-01-24T19:01:26.003Z,101347.28
2023-01-24T19:06:31.277Z,101353.44
2023-01-24T19:11:38.891Z,101335.81
2023-01-24T19:16:44.030Z,101340.19
2023-01-24T19:21:48.319Z,101346.25
2023-01-24T19:26:53.331Z,101353.34
2023-01-24T19:31:56.746Z,101350.00
2023-01-24T19:37:00.173Z,101349.09
2023-01-24T19:42:05.401Z,101337.91
2023-01-24T19:47:08.837Z,101339.75
2023-01-24T19:52:12.216Z,101339.81
2023-01-24T19:57:17.039Z,101339.88
2023-01-24T20:02:20.618Z,101341.63
2023-01-24T20:07:24.120Z,101344.38
2023-01-24T20:12:29.510Z,101335.69
2023-01-24T20:17:32.849Z,101318.19
2023-01-24T20:22:36.148Z,101313.81
2023-01-24T20:27:41.030Z,101315.56
2023-01-24T20:32:44.617Z,101304.28
2023-01-24T20:37:47.952Z,101306.09
2023-01-24T20:42:52.933Z,101307.75
2023-01-24T20:47:56.403Z,101302.78
2023-01-24T20:52:59.635Z,101293.28
2023-01-24T20:58:04.360Z,101300.28
2023-01-24T21:03:07.866Z,101290.81
2023-01-24T21:08:11.507Z,101295.22
2023-01-24T21:13:16.975Z,101289.00
2023-01-24T21:18:20.324Z,101297.13
2023-01-24T21:23:27.065Z,101304.19
2023-01-24T21:28:31.863Z,101306.84
2023-01-24T21:33:35.450Z,101294.81
2023-01-24T21:38:38.884Z,101288.78
2023-01-24T21:43:43.614Z,101294.00
2023-01-24T21:49:04.446Z,101291.38
2023-01-24T21:54:10.413Z,101289.63
2023-01-24T21:59:15.461Z,101301.06
2023-01-24T22:04:19.340Z,101294.28
2023-01-24T22:09:22.728Z,101298.66
2023-01-24T22:14:30.034Z,101296.97
2023-01-24T22:19:41.298Z,101296.25
2023-01-24T22:24:55.283Z,101278.91
2023-01-24T22:30:00.902Z,101287.59
2023-01-24T22:35:04.743Z,101279.78
2023-01-24T22:40:09.688Z,101282.44
2023-01-24T22:45:14.839Z,101282.44
2023-01-24T22:50:20.735Z,101264.84
2023-01-24T22:55:24.078Z,101270.25
2023-01-24T23:00:28.899Z,101270.31
2023-01-24T23:05:32.703Z,101269.50
2023-01-24T23:10:36.147Z,101258.19
2023-01-24T23:15:58.063Z,101265.03
2023-01-24T23:21:18.485Z,101268.47
2023-01-24T23:26:21.953Z,101273.72
2023-01-24T23:31:26.812Z,101277.22
2023-01-24T23:36:31.674Z,101272.09
2023-01-24T23:41:35.030Z,101272.19
2023-01-24T23:46:39.727Z,101272.31
2023-01-24T23:51:43.058Z,101275.84
2023-01-24T23:56:46.413Z,101279.41
